createdAt,value
2018-08-24T00:00:15.239Z,9.47
2018-08-24T00:02:44.009Z,10.23
2018-08-24T00:05:12.827Z,9.93
2018-08-24T00:07:42.018Z,9.13
2018-08-24T00:10:10.878Z,9.40
2018-08-24T00:12:39.786Z,10.03
2018-08-24T00:15:08.484Z,9.63
2018-08-24T00:17:37.073Z,9.03
2018-08-24T00:20:05.817Z,9.00
2018-08-24T00:22:34.442Z,9.80
2018-08-24T00:25:03.014Z,9.07
2018-08-24T00:27:31.604Z,9.68
2018-08-24T00:30:00.348Z,8.93
2018-08-24T00:32:29.214Z,9.00
2018-08-24T00:34:58.067Z,9.03
2018-08-24T00:37:27.577Z,11.20
2018-08-24T00:39:56.267Z,10.50
2018-08-24T00:42:25.328Z,10.57
2018-08-24T00:44:53.899Z,10.03
2018-08-24T00:47:22.447Z,10.20
2018-08-24T00:49:51.161Z,9.80
2018-08-24T00:52:19.876Z,9.57
2018-08-24T00:54:48.619Z,9.70
2018-08-24T00:57:17.381Z,11.37
2018-08-24T00:59:46.457Z,11.70
2018-08-24T01:02:15.164Z,11.80
2018-08-24T01:04:43.927Z,10.63
2018-08-24T01:07:14.354Z,11.27
2018-08-24T01:25:13.925Z,8.37
2018-08-24T01:27:42.664Z,7.70
2018-08-24T01:30:11.761Z,7.62
2018-08-24T01:32:40.793Z,7.17
2018-08-24T01:35:10.020Z,7.17
2018-08-24T01:37:38.830Z,7.30
2018-08-24T01:40:07.791Z,6.87
2018-08-24T01:42:36.633Z,7.03
2018-08-24T01:45:05.923Z,7.37
2018-08-24T01:47:34.820Z,7.47
2018-08-24T01:50:04.377Z,6.97
2018-08-24T01:52:33.323Z,6.73
2018-08-24T01:55:02.008Z,6.37
2018-08-24T01:57:30.850Z,5.93
2018-08-24T01:59:59.618Z,6.80
2018-08-24T02:02:28.298Z,6.03
2018-08-24T02:04:56.814Z,5.77
2018-08-24T02:07:25.360Z,6.33
2018-08-24T02:09:53.913Z,6.20
2018-08-24T02:12:27.813Z,6.03
2018-08-24T02:14:56.367Z,5.57
2018-08-24T02:17:30.509Z,5.40
2018-08-24T02:20:04.501Z,6.40
2018-08-24T02:22:33.117Z,5.87
2018-08-24T02:25:01.861Z,5.30
2018-08-24T02:27:30.495Z,5.70
2018-08-24T02:29:59.552Z,5.03
2018-08-24T02:32:28.159Z,5.47
2018-08-24T02:34:59.540Z,5.70
2018-08-24T02:37:29.658Z,6.30
2018-08-24T02:39:58.722Z,5.60
2018-08-24T02:42:27.399Z,5.40
2018-08-24T02:44:56.339Z,5.63
2018-08-24T02:47:25.195Z,6.53
2018-08-24T02:49:54.204Z,5.93
2018-08-24T02:52:23.034Z,5.23
2018-08-24T02:54:51.769Z,5.30
2018-08-24T02:57:20.484Z,5.67
2018-08-24T02:59:49.287Z,5.73
2018-08-24T03:02:17.908Z,5.13
2018-08-24T03:04:46.647Z,5.67
2018-08-24T03:07:15.292Z,6.20
2018-08-24T03:12:17.752Z,5.30
2018-08-24T03:14:46.742Z,5.53
2018-08-24T03:17:21.115Z,6.10
2018-08-24T03:19:49.975Z,5.57
2018-08-24T03:22:18.791Z,5.47
2018-08-24T03:24:47.738Z,5.63
2018-08-24T03:27:16.633Z,6.10
2018-08-24T03:29:45.343Z,5.50
2018-08-24T03:32:14.229Z,5.60
2018-08-24T03:34:42.977Z,6.30
2018-08-24T03:37:11.737Z,5.50
2018-08-24T03:39:40.580Z,5.40
2018-08-24T03:42:09.411Z,6.33
2018-08-24T03:44:38.241Z,5.83
2018-08-24T03:47:07.025Z,5.75
2018-08-24T03:49:35.645Z,6.00
2018-08-24T03:52:04.170Z,6.27
2018-08-24T03:54:32.732Z,6.10
2018-08-24T03:57:01.375Z,6.03
2018-08-24T03:59:29.894Z,6.45
2018-08-24T04:01:58.468Z,6.23
2018-08-24T04:04:27.209Z,5.90
2018-08-24T04:06:55.915Z,6.37
2018-08-24T04:09:24.479Z,5.87
2018-08-24T04:11:53.273Z,5.85
2018-08-24T04:14:22.529Z,6.20
2018-08-24T04:16:56.464Z,5.97
2018-08-24T04:19:29.009Z,6.27
2018-08-24T04:21:58.152Z,5.90
2018-08-24T04:24:27.370Z,7.50
2018-08-24T04:26:56.862Z,6.27
2018-08-24T04:29:25.978Z,6.73
2018-08-24T04:31:54.813Z,6.80
2018-08-24T04:34:23.481Z,6.70
2018-08-24T04:36:52.043Z,6.60
2018-08-24T04:39:20.996Z,7.07
2018-08-24T04:41:50.033Z,7.10
2018-08-24T04:44:18.798Z,7.37
2018-08-24T04:46:47.336Z,7.00
2018-08-24T04:49:15.797Z,6.90
2018-08-24T04:51:44.336Z,7.30
2018-08-24T04:54:12.968Z,7.13
2018-08-24T04:56:41.475Z,7.40
2018-08-24T04:59:10.011Z,6.77
2018-08-24T05:01:38.859Z,7.27
2018-08-24T05:04:07.918Z,7.17
2018-08-24T05:06:36.623Z,7.47
2018-08-24T05:09:08.637Z,7.70
2018-08-24T05:11:38.507Z,7.10
2018-08-24T05:14:07.983Z,7.17
2018-08-24T05:16:36.999Z,6.93
2018-08-24T05:19:16.929Z,7.50
2018-08-24T05:21:46.288Z,7.65
2018-08-24T05:24:15.433Z,7.33
2018-08-24T05:26:44.337Z,7.03
2018-08-24T05:29:13.027Z,6.67
2018-08-24T05:31:42.010Z,7.27
2018-08-24T05:34:10.987Z,7.83
2018-08-24T05:36:39.729Z,6.53
2018-08-24T05:39:09.205Z,8.27
2018-08-24T05:41:37.951Z,7.80
2018-08-24T05:44:06.874Z,7.90
2018-08-24T05:46:35.465Z,7.37
2018-08-24T05:49:04.156Z,7.40
2018-08-24T05:51:33.212Z,6.80
2018-08-24T05:54:02.440Z,7.60
2018-08-24T05:56:31.342Z,7.37
2018-08-24T05:59:00.140Z,8.17
2018-08-24T06:01:28.924Z,7.97
2018-08-24T06:03:58.007Z,7.63
2018-08-24T06:06:27.685Z,7.90
2018-08-24T06:09:02.988Z,7.20
2018-08-24T06:11:32.188Z,7.40
2018-08-24T06:14:01.014Z,8.17
2018-08-24T06:16:30.247Z,7.87
2018-08-24T06:18:59.465Z,8.10
2018-08-24T06:21:28.539Z,8.03
2018-08-24T06:23:57.623Z,7.57
2018-08-24T06:26:26.500Z,8.23
2018-08-24T06:28:55.415Z,7.57
2018-08-24T06:31:24.441Z,7.83
2018-08-24T06:33:53.607Z,8.30
2018-08-24T06:36:22.712Z,7.90
2018-08-24T06:38:51.817Z,7.57
2018-08-24T06:41:21.010Z,7.90
2018-08-24T06:43:49.999Z,7.90
2018-08-24T06:46:18.960Z,8.10
2018-08-24T06:48:48.082Z,8.20
2018-08-24T06:51:17.456Z,8.07
2018-08-24T06:53:46.549Z,6.93
2018-08-24T06:56:15.866Z,6.92
2018-08-24T06:58:45.129Z,7.40
2018-08-24T07:01:13.960Z,8.30
2018-08-24T07:03:43.030Z,7.13
2018-08-24T07:06:12.131Z,7.40
2018-08-24T07:08:41.102Z,7.20
2018-08-24T07:11:10.065Z,7.33
2018-08-24T07:13:39.337Z,7.27
2018-08-24T07:16:08.416Z,7.70
2018-08-24T07:18:37.313Z,6.58
2018-08-24T07:21:06.478Z,6.90
2018-08-24T07:23:36.313Z,6.80
2018-08-24T07:26:07.653Z,5.80
2018-08-24T07:28:36.563Z,5.80
2018-08-24T07:31:05.480Z,5.57
2018-08-24T07:33:34.280Z,5.47
2018-08-24T07:36:03.215Z,5.17
2018-08-24T07:38:32.039Z,5.27
2018-08-24T07:41:00.833Z,4.93
2018-08-24T07:43:29.974Z,5.80
2018-08-24T07:45:58.952Z,5.33
2018-08-24T07:48:27.941Z,5.83
2018-08-24T07:50:57.210Z,5.07
2018-08-24T07:53:26.138Z,5.67
2018-08-24T07:55:55.083Z,5.80
2018-08-24T07:58:24.397Z,5.60
2018-08-24T08:00:53.509Z,5.93
2018-08-24T08:03:22.452Z,5.93
2018-08-24T08:05:51.293Z,5.90
2018-08-24T08:08:20.327Z,6.20
2018-08-24T08:10:49.315Z,5.27
2018-08-24T08:13:18.151Z,5.73
2018-08-24T08:15:46.845Z,5.73
2018-08-24T08:18:15.551Z,5.37
2018-08-24T08:20:44.350Z,5.60
2018-08-24T08:23:12.996Z,5.20
2018-08-24T08:25:42.134Z,5.17
2018-08-24T08:28:11.054Z,5.40
2018-08-24T08:30:39.750Z,5.50
2018-08-24T08:33:08.701Z,5.20
2018-08-24T08:35:37.529Z,5.30
2018-08-24T08:38:06.521Z,5.20
2018-08-24T08:40:35.359Z,5.50
2018-08-24T08:43:04.451Z,5.43
2018-08-24T08:45:33.486Z,5.47
2018-08-24T08:48:05.809Z,5.35
2018-08-24T08:50:34.789Z,5.20
2018-08-24T08:53:03.594Z,5.27
2018-08-24T08:55:32.508Z,5.67
2018-08-24T08:58:01.278Z,4.50
2018-08-24T09:00:30.333Z,4.40
2018-08-24T09:02:59.111Z,4.90
2018-08-24T09:05:27.930Z,4.30
2018-08-24T09:07:57.161Z,4.10
2018-08-24T09:10:25.997Z,4.20
2018-08-24T09:12:55.339Z,5.17
2018-08-24T09:15:24.042Z,4.13
2018-08-24T09:17:58.092Z,4.83
2018-08-24T09:21:30.150Z,4.53
2018-08-24T09:24:04.200Z,4.67
2018-08-24T09:26:38.114Z,4.57
2018-08-24T09:29:11.020Z,4.53
2018-08-24T09:31:41.194Z,4.23
2018-08-24T09:34:09.970Z,4.20
2018-08-24T09:36:38.919Z,3.60
2018-08-24T09:39:08.798Z,4.00
2018-08-24T09:41:37.819Z,3.97
2018-08-24T09:44:06.777Z,4.10
2018-08-24T09:46:40.783Z,4.13
2018-08-24T09:49:15.000Z,3.60
2018-08-24T09:51:43.739Z,3.90
2018-08-24T09:54:12.712Z,4.43
2018-08-24T09:56:41.813Z,3.93
2018-08-24T09:59:10.823Z,3.77
2018-08-24T10:01:44.898Z,3.67
2018-08-24T10:04:18.976Z,3.92
2018-08-24T10:06:53.005Z,3.83
2018-08-24T10:09:21.863Z,3.60
2018-08-24T10:11:50.394Z,4.20
2018-08-24T10:14:19.156Z,3.62
2018-08-24T10:16:47.776Z,3.57
2018-08-24T10:19:17.011Z,3.37
2018-08-24T10:21:45.796Z,3.50
2018-08-24T10:24:14.663Z,3.80
2018-08-24T10:26:43.314Z,3.57
2018-08-24T10:29:12.349Z,3.80
2018-08-24T10:31:41.243Z,3.97
2018-08-24T10:34:10.381Z,3.80
2018-08-24T10:36:38.983Z,4.57
2018-08-24T10:39:09.366Z,4.93
2018-08-24T10:41:37.918Z,4.10
2018-08-24T10:44:06.830Z,4.03
2018-08-24T10:46:35.436Z,2.98
2018-08-24T10:49:04.100Z,2.10
2018-08-24T10:51:33.179Z,2.57
2018-08-24T10:54:02.128Z,2.60
2018-08-24T10:56:31.182Z,3.17
2018-08-24T10:59:05.575Z,3.50
2018-08-24T11:01:36.648Z,2.73
2018-08-24T11:04:06.030Z,2.90
2018-08-24T11:06:34.713Z,2.80
2018-08-24T11:09:04.807Z,2.83
2018-08-24T11:11:33.893Z,3.97
2018-08-24T11:14:02.547Z,3.60
2018-08-24T11:16:31.294Z,3.50
2018-08-24T11:19:00.062Z,3.73
2018-08-24T11:21:29.029Z,3.63
2018-08-24T11:23:58.405Z,4.20
2018-08-24T11:26:27.364Z,4.10
2018-08-24T11:28:56.447Z,4.53
2018-08-24T11:31:25.664Z,4.60
2018-08-24T11:33:55.513Z,3.87
2018-08-24T11:36:24.544Z,4.67
2018-08-24T11:38:53.797Z,4.20
2018-08-24T11:41:22.889Z,4.40
2018-08-24T11:43:52.208Z,4.40
2018-08-24T11:46:22.548Z,3.80
2018-08-24T12:15:17.596Z,3.77
2018-08-24T12:17:46.565Z,4.00
2018-08-24T12:20:17.468Z,4.23
2018-08-24T12:22:46.609Z,4.10
2018-08-24T12:25:16.163Z,4.00
2018-08-24T12:27:45.102Z,4.83
2018-08-24T12:30:14.133Z,4.23
2018-08-24T12:32:44.497Z,4.23
2018-08-24T12:50:53.579Z,6.50
2018-08-24T12:53:37.520Z,6.73
2018-08-24T12:56:14.174Z,7.50
2018-08-24T12:58:43.863Z,7.60
2018-08-24T13:01:12.837Z,8.20
2018-08-24T13:03:41.477Z,8.10
2018-08-24T13:06:10.358Z,8.00
2018-08-24T13:08:39.569Z,7.30
2018-08-24T13:11:10.825Z,9.30
2018-08-24T13:13:39.720Z,9.35
2018-08-24T13:16:09.298Z,9.23
2018-08-24T13:18:41.864Z,9.90
2018-08-24T13:21:11.200Z,10.43
2018-08-24T13:23:40.740Z,10.07
2018-08-24T13:26:09.478Z,9.70
2018-08-24T13:28:38.215Z,9.57
2018-08-24T13:31:07.362Z,10.40
2018-08-24T13:33:36.375Z,9.80
2018-08-24T13:36:05.553Z,10.20
2018-08-24T13:38:34.369Z,9.80
2018-08-24T13:41:03.259Z,9.93
2018-08-24T13:43:32.210Z,9.30
2018-08-24T13:46:01.105Z,8.87
2018-08-24T13:48:30.221Z,8.90
2018-08-24T13:50:59.307Z,8.93
2018-08-24T13:53:28.366Z,9.80
2018-08-24T13:55:57.390Z,9.18
2018-08-24T13:58:26.816Z,9.53
2018-08-24T14:00:56.027Z,9.57
2018-08-24T14:03:28.402Z,9.00
2018-08-24T14:05:57.679Z,9.27
2018-08-24T14:08:31.299Z,9.27
2018-08-24T14:11:00.800Z,9.17
2018-08-24T14:13:34.207Z,9.70
2018-08-24T14:16:03.261Z,8.60
2018-08-24T14:18:32.396Z,9.80
2018-08-24T14:21:01.730Z,9.40
2018-08-24T14:23:30.767Z,9.30
2018-08-24T14:26:00.828Z,8.90
2018-08-24T14:28:30.199Z,8.93
2018-08-24T14:30:59.117Z,8.20
2018-08-24T14:33:28.110Z,9.53
2018-08-24T14:35:57.505Z,8.27
2018-08-24T14:38:26.787Z,9.48
2018-08-24T14:40:55.623Z,9.90
2018-08-24T14:43:24.639Z,8.50
2018-08-24T14:45:53.767Z,8.20
2018-08-24T14:48:23.117Z,8.80
2018-08-24T14:50:52.210Z,7.33
2018-08-24T14:53:21.637Z,7.43
2018-08-24T14:55:50.326Z,8.37
2018-08-24T14:58:19.184Z,8.70
2018-08-24T15:00:47.792Z,8.07
2018-08-24T15:03:16.508Z,7.83
2018-08-24T15:05:45.280Z,7.57
2018-08-24T15:08:14.164Z,8.10
2018-08-24T15:10:42.975Z,8.73
2018-08-24T15:13:11.868Z,9.00
2018-08-24T15:15:40.634Z,7.33
2018-08-24T15:18:10.980Z,7.40
2018-08-24T15:20:39.709Z,7.85
2018-08-24T15:23:11.596Z,8.43
2018-08-24T15:25:40.621Z,7.40
2018-08-24T15:28:09.483Z,7.97
2018-08-24T15:30:38.341Z,8.23
2018-08-24T15:33:07.096Z,7.10
2018-08-24T15:35:35.867Z,7.97
2018-08-24T15:38:05.381Z,7.03
2018-08-24T15:40:34.213Z,8.00
2018-08-24T15:43:03.163Z,6.97
2018-08-24T15:45:32.166Z,7.47
2018-08-24T15:48:00.997Z,8.70
2018-08-24T15:50:29.640Z,8.57
2018-08-24T15:53:00.295Z,9.35
2018-08-24T15:55:29.270Z,9.60
2018-08-24T15:57:58.263Z,8.50
2018-08-24T16:00:26.991Z,7.43
2018-08-24T16:02:56.240Z,7.63
2018-08-24T16:05:24.975Z,7.90
2018-08-24T16:07:54.046Z,7.77
2018-08-24T16:10:22.896Z,8.17
2018-08-24T16:12:52.204Z,7.50
2018-08-24T16:15:20.982Z,8.03
2018-08-24T16:18:26.873Z,7.63
2018-08-24T16:20:55.806Z,7.60
2018-08-24T16:23:24.697Z,7.50
2018-08-24T16:25:53.424Z,7.10
2018-08-24T16:28:22.184Z,6.10
2018-08-24T16:30:51.391Z,6.87
2018-08-24T16:33:20.628Z,6.40
2018-08-24T16:35:49.510Z,7.40
2018-08-24T16:38:18.306Z,6.90
2018-08-24T16:40:47.252Z,6.53
2018-08-24T16:43:16.184Z,6.72
2018-08-24T16:45:45.168Z,6.60
2018-08-24T16:48:13.874Z,6.93
2018-08-24T16:50:42.778Z,7.03
2018-08-24T16:53:11.622Z,6.60
2018-08-24T16:55:40.756Z,6.87
2018-08-24T16:58:09.491Z,6.63
2018-08-24T17:00:38.097Z,6.40
2018-08-24T17:03:07.137Z,6.27
2018-08-24T17:05:36.893Z,6.00
2018-08-24T17:08:06.206Z,6.37
2018-08-24T17:10:35.362Z,6.67
2018-08-24T17:13:04.233Z,6.43
2018-08-24T17:15:33.345Z,6.08
2018-08-24T17:18:02.178Z,6.07
2018-08-24T17:20:30.883Z,5.70
2018-08-24T17:22:59.603Z,5.80
2018-08-24T17:25:28.373Z,6.30
2018-08-24T17:27:58.015Z,6.03
2018-08-24T17:30:27.104Z,6.07
2018-08-24T17:32:56.340Z,5.43
2018-08-24T17:35:25.190Z,7.07
2018-08-24T17:37:54.834Z,6.22
2018-08-24T17:40:23.823Z,5.97
2018-08-24T17:42:52.801Z,6.27
2018-08-24T17:45:21.640Z,6.50
2018-08-24T17:47:50.444Z,6.47
2018-08-24T17:50:19.301Z,6.80
2018-08-24T17:52:47.944Z,6.07
2018-08-24T17:55:16.575Z,6.73
2018-08-24T17:57:46.384Z,6.50
2018-08-24T18:00:15.500Z,5.87
2018-08-24T18:02:44.345Z,6.57
2018-08-24T18:05:13.847Z,5.90
2018-08-24T18:07:42.848Z,5.47
2018-08-24T18:10:13.161Z,6.63
2018-08-24T18:12:41.917Z,7.43
2018-08-24T18:15:11.071Z,6.40
2018-08-24T18:17:39.931Z,6.10
2018-08-24T18:20:17.100Z,7.08
2018-08-24T18:22:49.048Z,6.53
2018-08-24T18:25:25.248Z,6.40
2018-08-24T18:28:00.355Z,6.17
2018-08-24T18:30:29.598Z,6.20
2018-08-24T18:33:03.459Z,5.90
2018-08-24T18:35:32.641Z,6.73
2018-08-24T18:38:01.597Z,6.60
2018-08-24T18:40:30.381Z,6.47
2018-08-24T18:42:59.320Z,7.17
2018-08-24T18:45:28.423Z,7.10
2018-08-24T18:47:57.280Z,6.97
2018-08-24T18:50:26.750Z,7.28
2018-08-24T18:52:55.556Z,6.87
2018-08-24T18:55:24.433Z,7.33
2018-08-24T18:57:53.631Z,6.47
2018-08-24T19:00:22.299Z,6.60
2018-08-24T19:02:51.123Z,7.10
2018-08-24T19:05:20.304Z,6.90
2018-08-24T19:07:53.207Z,6.63
2018-08-24T19:36:32.025Z,7.50
2018-08-24T19:39:00.792Z,6.53
2018-08-24T19:41:34.690Z,7.00
2018-08-24T19:44:03.466Z,6.83
2018-08-24T19:46:33.385Z,7.20
2018-08-24T19:49:07.421Z,7.00
2018-08-24T19:51:36.320Z,7.70
2018-08-24T19:54:05.020Z,7.23
2018-08-24T19:56:33.890Z,7.60
2018-08-24T19:59:04.967Z,7.23
2018-08-24T20:01:35.027Z,7.73
2018-08-24T20:04:04.969Z,7.17
2018-08-24T20:06:40.478Z,7.10
2018-08-24T20:09:15.714Z,7.33
2018-08-24T20:11:46.965Z,8.20
2018-08-24T20:14:16.380Z,7.40
2018-08-24T20:16:51.174Z,7.33
2018-08-24T20:19:20.410Z,7.60
2018-08-24T20:21:49.219Z,7.20
2018-08-24T20:24:18.450Z,6.90
2018-08-24T20:26:47.843Z,7.13
2018-08-24T20:29:17.596Z,7.17
2018-08-24T20:31:46.759Z,8.43
2018-08-24T20:34:15.721Z,7.63
2018-08-24T20:36:45.230Z,7.70
2018-08-24T20:39:14.423Z,8.30
2018-08-24T20:41:45.728Z,8.90
2018-08-24T20:44:15.984Z,8.10
2018-08-24T20:46:45.299Z,8.17
2018-08-24T20:49:14.305Z,7.87
2018-08-24T20:51:43.560Z,9.70
2018-08-24T20:54:12.874Z,8.30
2018-08-24T20:56:42.059Z,8.83
2018-08-24T20:59:12.688Z,9.37
2018-08-24T21:01:42.323Z,10.20
2018-08-24T21:04:11.390Z,9.13
2018-08-24T21:06:40.510Z,9.57
2018-08-24T21:09:10.634Z,9.33
2018-08-24T21:11:40.044Z,9.90
2018-08-24T21:14:09.392Z,8.83
2018-08-24T21:16:39.535Z,8.50
2018-08-24T21:19:08.571Z,8.13
2018-08-24T21:21:37.533Z,8.27
2018-08-24T21:24:07.375Z,7.93
2018-08-24T21:26:36.251Z,9.00
2018-08-24T21:29:06.004Z,8.30
2018-08-24T21:31:34.837Z,8.07
2018-08-24T21:34:03.894Z,8.10
2018-08-24T21:36:33.020Z,7.77
2018-08-24T21:39:01.944Z,8.00
2018-08-24T21:41:30.889Z,8.97
2018-08-24T21:43:59.645Z,8.23
2018-08-24T21:46:28.407Z,7.70
2018-08-24T21:48:57.263Z,8.30
2018-08-24T21:51:26.188Z,8.13
2018-08-24T21:53:55.131Z,7.15
2018-08-24T21:56:24.062Z,7.97
2018-08-24T21:58:53.061Z,8.27
2018-08-24T22:01:21.986Z,7.03
2018-08-24T22:03:50.918Z,6.40
2018-08-24T22:06:20.190Z,6.97
2018-08-24T22:08:49.148Z,6.10
2018-08-24T22:11:18.138Z,5.97
2018-08-24T22:13:46.757Z,6.23
2018-08-24T22:16:15.531Z,7.20
2018-08-24T22:18:44.221Z,6.20
2018-08-24T22:21:12.986Z,6.30
2018-08-24T22:23:41.550Z,6.37
2018-08-24T22:26:10.351Z,6.70
2018-08-24T22:28:40.593Z,5.20
2018-08-24T22:31:14.132Z,7.27
2018-08-24T22:33:43.307Z,7.30
2018-08-24T22:36:13.236Z,7.10
2018-08-24T22:38:42.286Z,7.33
2018-08-24T22:41:10.958Z,7.33
2018-08-24T22:43:41.317Z,6.70
2018-08-24T22:46:10.389Z,6.70
2018-08-24T22:48:39.314Z,6.60
2018-08-24T22:51:09.399Z,7.57
2018-08-24T22:53:38.361Z,7.10
2018-08-24T23:32:56.037Z,5.70
2018-08-24T23:35:24.914Z,4.63
2018-08-24T23:37:53.684Z,4.73
2018-08-24T23:40:22.461Z,4.53
2018-08-24T23:42:51.189Z,4.83
2018-08-24T23:45:20.027Z,5.73
2018-08-24T23:47:48.590Z,4.97
2018-08-24T23:50:17.406Z,4.70
2018-08-24T23:52:46.221Z,4.65
2018-08-24T23:55:15.048Z,4.50
2018-08-24T23:57:43.785Z,4.63
